ETSB

Buchel Airport

Germany
METAR ETSB 181600Z 01008KT 9999 SCT012 BKN023 14/09 Q1022 WHT FCST CANCEL
Observed Flight Rules
Oct-18 @ 16:00 UTC (12 minutes ago) Marginal Visual Flight Rules
Wind Visibility Clouds
10° at 8 knots 10,000+ meters
  • Scattered at 1,200' AGL
  • Broken at 2,300' AGL
Temperatures Readings
Current 14°C / 57°F
Dewpoint 9°C / 48°F
Humidity 72%
Altimeter 30.18" Hg
Pressure 1022 hPa
Elevation 486
METAR ETSB 181600Z 01008KT 9999 SCT012 BKN023 14/09 Q1022 WHT FCST CANCEL
Observed Flight Rules
Oct-18 @ 16:00 UTC
(12 minutes ago)
MVFR
Wind Visibility
10° at 8 knots 10,000+ meters
Clouds
  • Scattered at 1,200' AGL
  • Broken at 2,300' AGL
Temperature Dewpoint
14°C / 57°F 9°C / 48°F
Humidity Altimeter Pressure
72% 30.18" Hg 1022 hPa